Time;durP1;ratioP1;P1;durP2;ratioP2;P2;SDS_P1;SDS_P2;PMS_P1;PMS_P2;Temp;Humidity;BMP_temperature;BMP_pressure;BME280_temperature;BME280_humidity;BME280_pressure;Samples;Min_cycle;Max_cycle;Signal;HPM_P1;HPM_P2
2022/08/23 00:01:39;;;;;;;3.70;3.40;;;23.40;49.50;;;;;;5085481;28;21083;-50
2022/08/23 00:04:10;;;;;;;5.83;3.50;;;23.40;49.50;;;;;;5088727;28;20452;-50
2022/08/23 00:06:39;;;;;;;4.00;3.43;;;23.30;49.50;;;;;;5086658;28;20467;-50
2022/08/23 00:09:06;;;;;;;3.47;3.17;;;23.30;49.60;;;;;;5071214;28;20888;-50
2022/08/23 00:11:35;;;;;;;4.73;3.30;;;23.30;49.50;;;;;;5071108;28;20455;-50
2022/08/23 00:14:11;;;;;;;5.40;3.33;;;23.20;49.60;;;;;;5068006;28;20471;-50
2022/08/23 00:16:38;;;;;;;3.67;2.80;;;23.20;49.60;;;;;;5077156;28;20579;-51
2022/08/23 00:19:06;;;;;;;5.80;2.90;;;23.20;49.70;;;;;;5065260;28;20861;-50
2022/08/23 00:21:35;;;;;;;4.57;3.57;;;23.10;49.80;;;;;;5082842;28;21019;-51
2022/08/23 00:24:05;;;;;;;8.20;3.30;;;23.10;49.90;;;;;;5085840;28;20452;-50
2022/08/23 00:26:51;;;;;;;5.40;3.53;;;23.10;49.90;;;;;;5086553;28;20451;-50
2022/08/23 00:29:22;;;;;;;3.80;3.37;;;23.10;50.00;;;;;;5068432;28;20464;-50
2022/08/23 00:31:50;;;;;;;4.70;3.67;;;23.10;50.00;;;;;;5060747;28;20440;-50
2022/08/23 00:34:16;;;;;;;3.50;3.00;;;23.10;50.00;;;;;;5071678;28;20448;-50
2022/08/23 00:36:46;;;;;;;5.23;3.30;;;23.10;50.00;;;;;;5067208;28;20453;-50
2022/08/23 00:39:13;;;;;;;3.83;3.40;;;23.00;49.90;;;;;;5083057;28;20484;-50
2022/08/23 00:41:40;;;;;;;4.20;3.60;;;23.00;50.20;;;;;;5087151;28;20444;-50
2022/08/23 00:50:22;;;;;;;4.27;2.90;;;22.90;50.20;;;;;;5079116;28;20460;-50
2022/08/23 00:53:10;;;;;;;3.20;2.90;;;22.90;50.30;;;;;;5086840;28;20568;-50
2022/08/23 00:55:41;;;;;;;2.87;2.60;;;22.90;50.30;;;;;;5066000;28;20459;-50
2022/08/23 00:58:08;;;;;;;3.23;2.87;;;22.90;50.40;;;;;;5064903;28;20473;-50
2022/08/23 01:00:35;;;;;;;3.23;2.93;;;22.80;50.50;;;;;;5087636;28;20457;-50
2022/08/23 01:03:06;;;;;;;3.50;3.20;;;22.70;50.60;;;;;;5060059;28;20495;-50
2022/08/23 01:05:51;;;;;;;4.60;3.03;;;22.70;50.70;;;;;;5083625;28;20463;-50
2022/08/23 01:08:19;;;;;;;3.33;2.80;;;22.70;50.70;;;;;;5067400;28;20479;-51
2022/08/23 01:10:53;;;;;;;4.93;2.90;;;22.70;50.70;;;;;;5069572;28;20464;-50
2022/08/23 01:13:25;;;;;;;5.73;2.73;;;22.70;50.30;;;;;;5083148;28;20461;-50
2022/08/23 01:15:57;;;;;;;4.03;3.13;;;22.70;50.00;;;;;;5064947;28;21162;-50
2022/08/23 01:18:29;;;;;;;3.97;3.10;;;22.60;50.10;;;;;;5077013;28;20488;-50
2022/08/23 01:21:07;;;;;;;3.33;2.47;;;22.60;50.40;;;;;;5085564;28;21224;-50
2022/08/23 01:23:47;;;;;;;3.43;3.00;;;22.50;50.80;;;;;;5081912;28;20468;-50
2022/08/23 01:26:17;;;;;;;3.80;3.43;;;22.50;50.80;;;;;;5086159;28;20479;-50
2022/08/23 01:28:47;;;;;;;3.80;3.30;;;22.50;50.70;;;;;;5083534;28;20813;-50
2022/08/23 01:31:15;;;;;;;4.70;3.07;;;22.40;50.60;;;;;;5083449;28;20470;-50
2022/08/23 01:33:45;;;;;;;4.33;3.77;;;22.40;50.70;;;;;;5082613;28;20539;-50
2022/08/23 01:36:16;;;;;;;5.20;3.20;;;22.30;50.90;;;;;;5084331;28;20472;-50
2022/08/23 01:38:42;;;;;;;4.80;3.80;;;22.30;50.90;;;;;;5085865;28;20503;-50
2022/08/23 01:41:09;;;;;;;5.00;4.50;;;22.30;50.80;;;;;;5083944;28;20467;-50
2022/08/23 01:43:36;;;;;;;6.30;5.20;;;22.20;50.90;;;;;;5085816;28;20456;-50
2022/08/23 01:46:23;;;;;;;5.43;5.00;;;22.10;51.10;;;;;;5084076;28;20804;-50
2022/08/23 01:48:50;;;;;;;5.00;4.60;;;22.10;51.20;;;;;;5088603;28;20451;-50
2022/08/23 01:51:19;;;;;;;4.60;4.20;;;22.00;51.40;;;;;;5086612;28;20989;-50
2022/08/23 01:53:46;;;;;;;4.90;4.50;;;22.00;51.20;;;;;;5085179;28;20463;-50
2022/08/23 01:56:18;;;;;;;6.23;4.17;;;21.90;51.50;;;;;;5085836;28;20954;-50
2022/08/23 01:58:53;;;;;;;5.87;4.93;;;21.90;51.50;;;;;;5085243;28;20472;-50
2022/08/23 02:01:20;;;;;;;5.30;4.80;;;21.90;51.70;;;;;;5085465;28;20465;-50
2022/08/23 02:03:48;;;;;;;4.10;3.80;;;21.80;51.90;;;;;;5083943;28;20482;-50
2022/08/23 02:06:30;;;;;;;3.77;3.37;;;21.70;52.00;;;;;;5086308;28;20460;-50
2022/08/23 02:09:00;;;;;;;5.53;3.60;;;21.70;52.30;;;;;;5085248;28;20464;-50
2022/08/23 02:11:33;;;;;;;5.33;3.47;;;21.70;52.50;;;;;;5064876;28;20469;-50
2022/08/23 02:14:04;;;;;;;4.37;3.90;;;21.60;52.70;;;;;;5068519;28;20447;-50
2022/08/23 02:16:37;;;;;;;5.73;4.03;;;21.60;52.80;;;;;;5067224;28;20464;-50
2022/08/23 02:19:06;;;;;;;6.03;4.13;;;21.50;53.00;;;;;;5084538;28;20499;-50
2022/08/23 02:21:35;;;;;;;4.00;3.10;;;21.40;53.20;;;;;;5083952;28;20961;-50
2022/08/23 02:24:05;;;;;;;3.50;3.20;;;21.40;53.50;;;;;;5084889;28;20452;-50
2022/08/23 02:26:33;;;;;;;3.90;3.37;;;21.30;53.60;;;;;;5082726;28;20475;-50
2022/08/23 02:29:02;;;;;;;3.60;3.30;;;21.30;53.60;;;;;;5064052;28;20759;-50
2022/08/23 02:31:29;;;;;;;5.30;4.80;;;21.30;53.80;;;;;;5048815;28;20890;-50
2022/08/23 02:33:56;;;;;;;4.87;3.60;;;21.20;53.80;;;;;;5084699;28;20456;-50
2022/08/23 02:36:24;;;;;;;4.20;3.00;;;21.20;53.90;;;;;;5081554;28;20460;-50
2022/08/23 02:38:52;;;;;;;3.37;3.07;;;21.20;54.20;;;;;;5085538;28;20492;-50
2022/08/23 02:41:21;;;;;;;3.17;2.73;;;21.20;54.30;;;;;;5069268;28;20461;-49
2022/08/23 02:43:51;;;;;;;3.47;3.17;;;21.10;54.60;;;;;;5086351;28;20460;-50
2022/08/23 02:46:20;;;;;;;5.70;3.10;;;21.10;54.80;;;;;;5082852;28;20949;-50
2022/08/23 02:48:47;;;;;;;6.03;3.00;;;21.10;54.70;;;;;;5064259;28;20460;-50
2022/08/23 02:51:16;;;;;;;4.33;3.20;;;21.10;54.70;;;;;;5084265;28;20507;-50
2022/08/23 02:53:42;;;;;;;3.60;3.17;;;21.10;54.70;;;;;;5076309;28;20817;-50
2022/08/23 02:56:10;;;;;;;3.70;3.40;;;21.00;54.80;;;;;;5084690;28;20468;-50
2022/08/23 02:58:47;;;;;;;4.50;3.50;;;21.00;55.00;;;;;;5085811;28;20481;-50
2022/08/23 03:01:27;;;;;;;3.53;3.23;;;21.00;54.90;;;;;;5081008;28;20452;-50
2022/08/23 03:03:55;;;;;;;2.90;2.67;;;20.90;55.00;;;;;;5085353;28;20508;-50
2022/08/23 03:06:22;;;;;;;4.07;3.07;;;20.90;55.10;;;;;;5083460;28;20455;-50
2022/08/23 03:08:53;;;;;;;3.13;2.83;;;20.90;55.10;;;;;;5084052;28;21029;-50
2022/08/23 03:11:20;;;;;;;4.03;2.90;;;20.80;55.10;;;;;;5084620;28;20552;-50
2022/08/23 03:13:49;;;;;;;4.60;3.70;;;20.80;55.20;;;;;;5086887;28;20808;-50
2022/08/23 03:16:17;;;;;;;5.20;3.50;;;20.80;55.20;;;;;;5084231;28;20969;-50
2022/08/23 03:18:44;;;;;;;4.60;4.00;;;20.80;55.30;;;;;;5090852;28;20828;-50
2022/08/23 03:21:11;;;;;;;3.43;3.10;;;20.70;55.00;;;;;;5069798;28;20444;-50
2022/08/23 03:23:39;;;;;;;3.53;3.00;;;20.70;54.80;;;;;;5086716;28;20467;-50
2022/08/23 03:26:08;;;;;;;3.93;3.00;;;20.60;55.00;;;;;;5063829;28;20463;-50
2022/08/23 03:28:36;;;;;;;3.93;3.20;;;20.60;55.20;;;;;;5070181;28;20828;-50
2022/08/23 03:31:03;;;;;;;3.80;2.93;;;20.60;55.30;;;;;;5069010;28;20467;-50
2022/08/23 03:33:30;;;;;;;4.77;3.07;;;20.60;55.40;;;;;;5054762;28;20501;-50
2022/08/23 03:35:59;;;;;;;3.43;3.13;;;20.50;55.60;;;;;;5087172;28;20993;-50
2022/08/23 03:38:26;;;;;;;2.97;2.70;;;20.50;55.70;;;;;;5075859;28;20815;-50
2022/08/23 03:40:53;;;;;;;3.63;3.33;;;20.40;56.00;;;;;;5084479;28;20818;-50
2022/08/23 03:43:20;;;;;;;3.60;3.30;;;20.30;56.30;;;;;;5071212;28;20480;-50
2022/08/23 03:45:47;;;;;;;6.40;3.13;;;20.30;56.30;;;;;;5069184;28;20457;-50
2022/08/23 03:48:15;;;;;;;7.43;3.30;;;20.30;56.30;;;;;;5083466;28;20471;-50
2022/08/23 03:50:42;;;;;;;4.10;2.97;;;20.30;56.40;;;;;;5070653;28;20472;-50
2022/08/23 03:53:09;;;;;;;3.23;2.93;;;20.30;56.40;;;;;;5071361;28;20899;-50
2022/08/23 03:55:39;;;;;;;3.30;3.10;;;20.30;56.70;;;;;;5073182;28;20461;-50
2022/08/23 03:58:09;;;;;;;3.63;3.00;;;20.20;56.90;;;;;;5086011;28;20481;-50
2022/08/23 04:00:36;;;;;;;4.67;3.00;;;20.20;57.10;;;;;;5085845;28;20499;-50
2022/08/23 04:03:04;;;;;;;4.43;3.00;;;20.20;57.20;;;;;;5070707;28;20464;-50
2022/08/23 04:05:30;;;;;;;3.87;3.10;;;20.20;57.20;;;;;;5069144;28;20463;-51
2022/08/23 04:07:57;;;;;;;4.27;3.60;;;20.20;57.20;;;;;;5067434;28;20485;-50
2022/08/23 04:10:24;;;;;;;4.50;3.30;;;20.10;57.40;;;;;;5080368;28;21064;-50
2022/08/23 04:12:53;;;;;;;4.10;3.33;;;20.00;57.70;;;;;;5086833;28;20869;-50
2022/08/23 04:15:20;;;;;;;3.40;3.10;;;20.00;57.90;;;;;;5066892;28;20486;-50
2022/08/23 04:17:47;;;;;;;3.87;3.57;;;20.00;57.90;;;;;;5088897;28;20461;-50
2022/08/23 04:20:14;;;;;;;8.20;3.27;;;20.00;58.00;;;;;;5086070;28;20790;-50
2022/08/23 04:22:41;;;;;;;3.77;3.47;;;20.00;58.00;;;;;;5083442;28;20460;-50
2022/08/23 04:25:10;;;;;;;3.63;3.33;;;20.00;58.20;;;;;;5086326;28;20461;-50
2022/08/23 04:27:56;;;;;;;3.50;3.20;;;20.00;58.20;;;;;;5086145;28;20506;-51
2022/08/23 04:30:23;;;;;;;4.23;3.83;;;20.00;58.30;;;;;;5068055;28;20456;-50
2022/08/23 04:32:51;;;;;;;4.40;4.00;;;19.90;58.30;;;;;;5066084;28;20464;-50
2022/08/23 04:35:21;;;;;;;3.80;3.30;;;19.90;58.50;;;;;;5067693;28;20999;-51
2022/08/23 04:37:52;;;;;;;9.57;3.90;;;19.90;58.60;;;;;;5085856;28;20885;-49
2022/08/23 04:43:04;;;;;;;4.53;3.47;;;19.90;58.70;;;;;;5083658;28;20491;-52
2022/08/23 04:45:31;;;;;;;3.13;2.43;;;19.80;58.80;;;;;;5068462;28;20455;-51
2022/08/23 04:47:58;;;;;;;3.60;3.30;;;19.80;59.00;;;;;;5083496;28;20456;-51
2022/08/23 04:50:25;;;;;;;3.60;3.23;;;19.70;59.20;;;;;;5087381;28;20483;-50
2022/08/23 04:52:51;;;;;;;3.80;3.43;;;19.80;59.10;;;;;;5064825;28;20456;-49
2022/08/23 04:55:18;;;;;;;4.30;3.17;;;19.70;59.10;;;;;;5088136;28;20471;-51
2022/08/23 04:57:45;;;;;;;6.43;2.90;;;19.80;59.10;;;;;;5085956;28;20688;-50
2022/08/23 05:00:15;;;;;;;3.90;3.20;;;19.70;59.40;;;;;;5085678;28;20480;-50
2022/08/23 05:02:42;;;;;;;4.80;3.60;;;19.70;59.40;;;;;;5083684;28;20453;-50
2022/08/23 05:05:09;;;;;;;5.20;2.80;;;19.70;59.50;;;;;;5085599;28;20904;-50
2022/08/23 05:07:37;;;;;;;6.60;3.17;;;19.70;59.40;;;;;;5065998;28;20468;-50
2022/08/23 05:10:11;;;;;;;6.00;3.00;;;19.70;59.50;;;;;;5082872;28;20457;-50
2022/08/23 05:12:39;;;;;;;4.37;3.77;;;19.70;59.50;;;;;;5086032;28;20461;-50
2022/08/23 05:15:08;;;;;;;4.33;3.70;;;19.70;59.70;;;;;;5083975;28;20475;-50
2022/08/23 05:17:35;;;;;;;3.10;2.80;;;19.70;59.80;;;;;;5086085;28;20464;-50
2022/08/23 05:20:04;;;;;;;3.93;3.50;;;19.70;59.90;;;;;;5067587;28;20488;-50
2022/08/23 05:22:36;;;;;;;6.90;3.80;;;19.80;59.90;;;;;;5084902;28;20457;-50
2022/08/23 05:25:03;;;;;;;5.23;3.63;;;19.80;60.00;;;;;;5084974;28;20471;-50
2022/08/23 05:27:30;;;;;;;4.93;3.70;;;19.80;60.10;;;;;;5087106;28;20448;-50
2022/08/23 05:29:57;;;;;;;7.80;3.53;;;19.80;60.20;;;;;;5065670;28;20460;-51
2022/08/23 05:32:24;;;;;;;5.80;3.37;;;19.90;60.20;;;;;;5083862;28;20458;-51
2022/08/23 05:34:51;;;;;;;4.37;4.07;;;19.90;60.20;;;;;;5067706;28;20499;-51
2022/08/23 05:37:17;;;;;;;5.43;3.10;;;20.00;60.20;;;;;;5064447;28;20839;-50
2022/08/23 05:39:44;;;;;;;4.77;3.53;;;20.00;60.20;;;;;;5090159;28;21081;-51
2022/08/23 05:42:14;;;;;;;4.57;3.70;;;20.00;60.40;;;;;;5085269;28;20549;-51
2022/08/23 05:44:43;;;;;;;3.73;3.10;;;20.00;60.30;;;;;;5064620;28;21121;-50
2022/08/23 05:47:12;;;;;;;5.07;3.80;;;20.10;60.30;;;;;;5081911;28;21106;-51
2022/08/23 05:49:41;;;;;;;12.47;5.07;;;20.10;60.30;;;;;;5086674;28;20468;-51
2022/08/23 05:52:11;;;;;;;4.77;4.07;;;20.20;60.30;;;;;;5075827;28;20464;-50
2022/08/23 05:54:39;;;;;;;6.60;3.10;;;20.30;60.40;;;;;;5079978;28;20464;-51
2022/08/23 05:57:05;;;;;;;6.77;4.23;;;20.30;60.40;;;;;;5079254;28;20493;-51
2022/08/23 05:59:32;;;;;;;4.43;3.43;;;20.40;60.10;;;;;;5084334;28;20477;-51
2022/08/23 06:01:59;;;;;;;4.17;3.40;;;20.40;60.10;;;;;;5080931;28;20464;-51
2022/08/23 06:04:25;;;;;;;5.73;4.60;;;20.50;60.30;;;;;;5067898;28;20457;-51
2022/08/23 06:06:55;;;;;;;3.93;3.20;;;20.60;59.90;;;;;;5083565;28;20471;-51
2022/08/23 06:09:22;;;;;;;3.93;3.53;;;20.60;60.10;;;;;;5082724;28;20807;-50
2022/08/23 06:11:48;;;;;;;4.40;3.80;;;20.70;60.20;;;;;;5083015;28;20456;-51
2022/08/23 06:14:15;;;;;;;5.00;3.27;;;20.80;60.00;;;;;;5087557;28;20488;-51
2022/08/23 06:16:45;;;;;;;4.37;2.63;;;20.90;60.20;;;;;;5079387;28;20830;-51
2022/08/23 06:19:13;;;;;;;5.33;3.50;;;20.90;60.10;;;;;;5085307;28;20460;-51
2022/08/23 06:21:41;;;;;;;4.20;3.80;;;21.00;59.90;;;;;;5076822;28;20476;-50
2022/08/23 06:24:08;;;;;;;4.10;3.20;;;21.00;59.50;;;;;;5079861;28;20461;-51
2022/08/23 06:26:38;;;;;;;4.63;3.40;;;21.10;59.20;;;;;;5083744;28;20456;-51
2022/08/23 06:29:10;;;;;;;3.70;3.40;;;21.20;59.80;;;;;;5084363;28;20511;-51
2022/08/23 06:31:48;;;;;;;4.53;3.10;;;21.30;59.70;;;;;;5083722;28;20457;-50
2022/08/23 06:34:24;;;;;;;5.07;3.10;;;21.40;59.70;;;;;;5081010;28;20461;-51
2022/08/23 06:36:56;;;;;;;4.40;3.50;;;21.50;59.60;;;;;;5081894;28;20467;-50
2022/08/23 06:39:25;;;;;;;7.10;4.17;;;21.60;58.80;;;;;;5085969;28;20488;-51
2022/08/23 06:41:52;;;;;;;5.23;3.50;;;21.60;57.40;;;;;;5082507;28;20464;-51
2022/08/23 06:44:19;;;;;;;5.23;3.37;;;21.70;57.20;;;;;;5064620;28;20460;-51
2022/08/23 06:46:48;;;;;;;4.17;3.33;;;21.80;56.90;;;;;;5087059;28;20804;-51
2022/08/23 06:49:15;;;;;;;3.90;3.47;;;21.90;56.70;;;;;;5066484;28;20444;-51
2022/08/23 06:51:55;;;;;;;4.47;3.60;;;22.00;56.40;;;;;;5085476;28;20453;-51
2022/08/23 06:54:28;;;;;;;5.93;3.40;;;22.10;56.20;;;;;;5090449;28;20448;-51
2022/08/23 06:56:55;;;;;;;4.83;3.40;;;22.20;56.10;;;;;;5071944;28;20472;-51
2022/08/23 06:59:22;;;;;;;6.50;3.70;;;22.20;56.10;;;;;;5091300;28;20444;-51
2022/08/23 07:01:53;;;;;;;6.93;3.50;;;22.30;55.70;;;;;;5086621;28;20655;-51
2022/08/23 07:04:33;;;;;;;3.43;3.20;;;22.30;55.50;;;;;;5087173;28;20448;-51
2022/08/23 07:07:00;;;;;;;4.27;3.63;;;22.40;55.20;;;;;;5089467;28;20880;-50
2022/08/23 07:09:28;;;;;;;3.73;3.13;;;22.50;55.10;;;;;;5087982;28;20463;-51
2022/08/23 07:11:55;;;;;;;3.10;2.90;;;22.60;55.30;;;;;;5089613;28;20972;-51
2022/08/23 07:14:23;;;;;;;4.37;3.10;;;22.60;55.10;;;;;;5087485;28;20564;-51
2022/08/23 07:16:54;;;;;;;4.53;3.40;;;22.70;54.60;;;;;;5089730;28;20444;-51
2022/08/23 07:19:23;;;;;;;4.87;3.37;;;22.70;54.40;;;;;;5087385;28;21005;-51
2022/08/23 07:21:56;;;;;;;4.10;3.63;;;22.80;54.20;;;;;;5085143;28;20547;-51
2022/08/23 07:24:23;;;;;;;7.40;3.20;;;22.90;54.00;;;;;;5084198;28;20457;-51
2022/08/23 07:26:56;;;;;;;4.23;3.07;;;22.90;53.80;;;;;;5087931;28;20488;-51
2022/08/23 07:29:24;;;;;;;6.47;3.67;;;23.00;53.70;;;;;;5061241;28;20934;-50
2022/08/23 07:31:54;;;;;;;6.43;3.00;;;23.10;53.30;;;;;;5061853;28;20448;-51
2022/08/23 07:34:21;;;;;;;5.60;3.50;;;23.20;53.10;;;;;;5069418;28;20764;-51
2022/08/23 07:36:50;;;;;;;4.93;3.33;;;23.20;52.90;;;;;;5081610;28;20566;-50
2022/08/23 07:39:17;;;;;;;10.73;3.53;;;23.30;52.50;;;;;;5086816;28;20462;-51
2022/08/23 07:41:45;;;;;;;4.23;2.97;;;23.40;52.10;;;;;;5069456;28;20472;-51
2022/08/23 07:44:13;;;;;;;3.30;3.00;;;23.40;52.00;;;;;;5088546;28;20442;-51
2022/08/23 07:46:45;;;;;;;3.13;2.70;;;23.50;52.10;;;;;;5072402;28;20437;-51
2022/08/23 07:49:12;;;;;;;6.30;2.70;;;23.60;52.00;;;;;;5088521;28;20496;-51
2022/08/23 07:51:41;;;;;;;5.40;3.23;;;23.70;52.10;;;;;;5089674;28;20817;-51
2022/08/23 07:54:09;;;;;;;7.23;3.40;;;23.70;52.00;;;;;;5068867;28;20838;-51
2022/08/23 07:56:36;;;;;;;8.73;3.57;;;23.80;51.60;;;;;;5071159;28;21275;-51
2022/08/23 07:59:06;;;;;;;6.00;3.40;;;23.90;51.70;;;;;;5087390;28;20467;-51
2022/08/23 08:01:34;;;;;;;3.63;3.10;;;24.00;51.10;;;;;;5080571;28;20484;-51
2022/08/23 08:04:03;;;;;;;10.07;3.33;;;24.10;50.50;;;;;;5084103;28;20824;-51
2022/08/23 08:06:42;;;;;;;4.53;3.07;;;24.20;50.30;;;;;;5090629;28;20451;-51
2022/08/23 08:09:09;;;;;;;5.60;3.23;;;24.30;50.30;;;;;;5068798;28;20456;-50
2022/08/23 08:11:39;;;;;;;4.43;3.77;;;24.40;50.40;;;;;;5053468;28;20467;-51
2022/08/23 08:14:09;;;;;;;2.80;2.60;;;24.40;50.30;;;;;;5080600;28;20463;-51
2022/08/23 08:16:41;;;;;;;3.93;3.63;;;24.50;50.20;;;;;;5069565;28;20459;-51
2022/08/23 08:19:10;;;;;;;4.70;3.40;;;24.50;50.10;;;;;;5085698;28;20459;-51
2022/08/23 08:21:38;;;;;;;5.37;3.10;;;24.60;50.10;;;;;;5053224;28;21058;-51
2022/08/23 08:24:10;;;;;;;3.20;2.93;;;24.60;49.90;;;;;;5084891;28;20447;-51
2022/08/23 08:26:37;;;;;;;3.47;3.17;;;24.70;49.90;;;;;;5068792;28;20456;-51
2022/08/23 08:29:04;;;;;;;5.30;3.03;;;24.80;49.40;;;;;;5085015;28;20474;-51
2022/08/23 08:31:31;;;;;;;6.33;3.47;;;24.90;49.40;;;;;;5085623;28;20462;-51
2022/08/23 08:33:58;;;;;;;6.43;3.40;;;25.00;49.20;;;;;;5085724;28;20516;-51
2022/08/23 08:36:29;;;;;;;3.50;3.10;;;25.10;49.20;;;;;;5067466;28;20466;-51
2022/08/23 08:38:56;;;;;;;3.67;3.33;;;25.20;49.00;;;;;;5068168;28;20634;-51
2022/08/23 08:41:42;;;;;;;7.53;3.93;;;25.40;48.80;;;;;;5077173;28;20566;-51
2022/08/23 08:44:21;;;;;;;5.00;3.37;;;25.50;48.50;;;;;;5086639;28;20494;-51
2022/08/23 08:46:51;;;;;;;3.40;2.67;;;25.60;48.30;;;;;;5064767;28;20456;-51
2022/08/23 08:50:02;;;;;;;4.80;3.97;;;25.60;48.20;;;;;;5069398;28;20483;-51
2022/08/23 08:52:37;;;;;;;7.10;4.17;;;25.70;48.20;;;;;;5071992;28;20999;-50
2022/08/23 08:55:12;;;;;;;6.90;3.77;;;25.80;48.00;;;;;;5088608;28;20463;-51
2022/08/23 08:57:43;;;;;;;5.27;4.40;;;25.90;47.90;;;;;;5085191;28;20479;-51
2022/08/23 09:00:20;;;;;;;3.83;2.90;;;26.00;47.80;;;;;;5064303;28;20996;-51
2022/08/23 09:02:46;;;;;;;4.50;2.83;;;26.10;47.70;;;;;;5069378;28;20455;-51
2022/08/23 09:05:25;;;;;;;3.13;2.90;;;26.20;47.50;;;;;;5084226;28;20468;-51
2022/08/23 09:08:12;;;;;;;5.13;3.00;;;26.30;47.30;;;;;;5082959;28;20463;-51
2022/08/23 09:11:02;;;;;;;16.57;4.00;;;26.40;47.00;;;;;;5064767;28;20462;-52
2022/08/23 09:13:52;;;;;;;5.27;3.50;;;26.60;46.70;;;;;;5084230;28;20468;-52
2022/08/23 09:16:25;;;;;;;3.80;3.40;;;26.70;46.70;;;;;;5086653;28;20536;-52
2022/08/23 09:18:54;;;;;;;4.70;4.00;;;26.90;46.40;;;;;;5083860;28;20520;-52
2022/08/23 09:21:22;;;;;;;4.07;3.60;;;27.00;46.30;;;;;;5052206;28;21067;-52
2022/08/23 09:23:54;;;;;;;5.40;3.87;;;27.10;46.10;;;;;;5085578;28;20439;-52
2022/08/23 09:26:29;;;;;;;6.87;3.37;;;27.20;46.30;;;;;;5084548;28;20456;-52
2022/08/23 09:29:01;;;;;;;3.60;3.20;;;27.30;45.80;;;;;;5068479;28;20452;-51
2022/08/23 09:31:40;;;;;;;4.67;4.03;;;27.40;45.70;;;;;;5087207;28;20235;-52
2022/08/23 09:34:08;;;;;;;5.10;3.70;;;27.50;45.20;;;;;;5084729;28;20957;-52
2022/08/23 09:36:37;;;;;;;4.80;3.47;;;27.50;45.20;;;;;;5084188;28;20446;-52
2022/08/23 09:39:05;;;;;;;4.27;3.17;;;27.60;45.30;;;;;;5084521;28;21052;-50
2022/08/23 09:41:32;;;;;;;3.73;3.43;;;27.60;45.40;;;;;;5085303;28;20494;-50
2022/08/23 09:44:02;;;;;;;3.50;3.20;;;27.70;45.20;;;;;;5084580;28;20198;-50
2022/08/23 09:46:32;;;;;;;4.60;3.80;;;27.80;45.10;;;;;;5076499;28;20963;-50
2022/08/23 09:49:00;;;;;;;3.80;3.07;;;27.80;45.00;;;;;;5083052;28;21003;-50
2022/08/23 09:51:34;;;;;;;4.50;2.80;;;27.90;44.80;;;;;;5069666;28;20202;-50
2022/08/23 09:54:17;;;;;;;3.80;3.50;;;28.00;44.50;;;;;;5064887;28;20476;-51
2022/08/23 09:56:53;;;;;;;4.73;3.87;;;28.10;44.30;;;;;;5080970;28;20222;-51
2022/08/23 09:59:41;;;;;;;6.83;3.87;;;28.20;44.10;;;;;;5085294;28;20220;-51
2022/08/23 10:02:33;;;;;;;5.10;3.53;;;28.30;44.00;;;;;;5066625;28;20484;-51
2022/08/23 10:05:15;;;;;;;4.40;4.00;;;28.40;43.90;;;;;;5083441;28;20210;-51
2022/08/23 10:07:52;;;;;;;5.83;3.50;;;28.60;43.30;;;;;;5079493;28;20206;-51
2022/08/23 10:10:26;;;;;;;4.93;3.50;;;28.80;43.60;;;;;;5045892;28;20198;-51
2022/08/23 10:12:55;;;;;;;6.50;3.30;;;29.00;43.00;;;;;;5085590;28;20235;-51
2022/08/23 10:15:34;;;;;;;3.33;3.03;;;29.20;42.80;;;;;;5084009;28;20216;-51
2022/08/23 10:18:11;;;;;;;3.83;3.17;;;29.30;42.70;;;;;;5087127;28;20241;-51
2022/08/23 10:20:48;;;;;;;4.63;3.42;;;29.40;42.50;;;;;;5079438;28;20717;-51
2022/08/23 10:23:27;;;;;;;5.07;3.90;;;29.50;42.10;;;;;;5079282;28;20208;-51
2022/08/23 10:25:57;;;;;;;3.50;3.20;;;29.60;42.20;;;;;;5064300;28;20208;-51
2022/08/23 10:32:04;;;;;;;6.00;3.37;;;29.60;42.00;;;;;;5082550;28;20210;-51
2022/08/23 10:34:52;;;;;;;3.72;3.47;;;29.60;41.90;;;;;;5028185;28;20214;-51
2022/08/23 10:37:43;;;;;;;5.10;3.15;;;29.50;41.90;;;;;;5061429;28;20404;-51
2022/08/23 10:40:24;;;;;;;3.65;3.35;;;29.50;42.00;;;;;;5082672;28;20202;-51
2022/08/23 10:42:57;;;;;;;3.30;2.90;;;29.50;41.90;;;;;;5056844;28;20206;-51
2022/08/23 10:45:32;;;;;;;5.47;3.43;;;29.40;42.20;;;;;;5066858;28;20205;-51
2022/08/23 10:48:33;;;;;;;4.70;3.20;;;29.20;42.00;;;;;;5083954;28;20599;-51
2022/08/23 10:51:23;;;;;;;3.57;3.27;;;29.20;42.60;;;;;;5083778;28;20202;-51
2022/08/23 10:54:04;;;;;;;3.58;3.20;;;29.30;42.70;;;;;;5085976;28;20210;-51
2022/08/23 10:56:33;;;;;;;4.80;3.33;;;29.50;42.40;;;;;;5081270;28;20229;-51
2022/08/23 10:59:25;;;;;;;4.33;3.10;;;29.60;42.30;;;;;;5066174;28;20567;-51
2022/08/23 11:01:57;;;;;;;3.38;3.08;;;29.50;42.10;;;;;;5064950;28;20237;-51
2022/08/23 11:04:27;;;;;;;5.17;3.40;;;29.40;42.30;;;;;;5063386;28;20202;-51
2022/08/23 11:06:56;;;;;;;4.43;3.60;;;29.20;42.60;;;;;;5055801;28;20218;-51
2022/08/23 11:09:23;;;;;;;4.93;4.30;;;29.10;43.00;;;;;;5065189;28;20201;-51
2022/08/23 11:12:26;;;;;;;6.13;3.50;;;29.10;43.10;;;;;;5081545;28;20258;-51
2022/08/23 11:14:58;;;;;;;4.00;3.70;;;28.90;43.30;;;;;;5084945;28;20232;-51
2022/08/23 11:17:37;;;;;;;4.33;3.67;;;28.90;43.70;;;;;;5064935;28;20206;-51
2022/08/23 11:20:08;;;;;;;8.03;4.17;;;28.80;43.60;;;;;;5060685;28;20683;-51
2022/08/23 11:23:00;;;;;;;3.53;2.90;;;28.80;43.90;;;;;;5083129;28;20695;-51
2022/08/23 11:25:27;;;;;;;3.60;3.13;;;28.80;44.00;;;;;;5067926;28;20210;-51
2022/08/23 11:28:24;;;;;;;3.83;3.40;;;28.70;43.90;;;;;;5081781;28;20207;-51
2022/08/23 11:30:56;;;;;;;4.47;3.63;;;28.70;44.00;;;;;;5082706;28;20202;-51
2022/08/23 11:33:24;;;;;;;3.57;3.27;;;28.60;44.00;;;;;;5080814;28;20217;-51
2022/08/23 11:36:15;;;;;;;5.07;3.60;;;28.60;44.20;;;;;;5080961;28;20217;-51
2022/08/23 11:38:48;;;;;;;4.93;3.73;;;28.60;43.90;;;;;;5080113;28;20213;-51
2022/08/23 11:41:18;;;;;;;5.13;3.70;;;28.60;43.80;;;;;;5063765;28;20226;-51
2022/08/23 11:43:55;;;;;;;4.13;3.80;;;28.50;43.70;;;;;;5071118;28;20212;-51
2022/08/23 11:46:22;;;;;;;4.63;3.80;;;28.50;43.50;;;;;;5061801;28;20213;-51
2022/08/23 11:49:00;;;;;;;4.13;3.83;;;28.50;43.50;;;;;;5061889;28;20808;-51
2022/08/23 11:51:27;;;;;;;4.43;3.90;;;28.50;44.50;;;;;;5062285;28;20646;-51
2022/08/23 11:54:17;;;;;;;5.03;3.73;;;28.50;44.20;;;;;;5064576;28;20207;-49
2022/08/23 11:57:18;;;;;;;4.13;3.70;;;28.50;43.90;;;;;;5061437;28;20229;-49
2022/08/23 12:00:10;;;;;;;5.70;3.90;;;28.40;43.20;;;;;;5068477;28;20210;-49
2022/08/23 12:02:39;;;;;;;4.93;3.60;;;28.50;43.60;;;;;;5088923;28;20776;-49
2022/08/23 12:05:21;;;;;;;5.67;3.93;;;28.50;44.10;;;;;;5072567;28;21008;-49
2022/08/23 12:08:00;;;;;;;4.00;3.60;;;28.50;43.90;;;;;;5089733;28;20220;-49
2022/08/23 12:10:39;;;;;;;4.57;3.60;;;28.50;42.90;;;;;;5087422;28;20202;-49
2022/08/23 12:13:18;;;;;;;4.57;3.70;;;28.50;43.20;;;;;;5088999;28;20444;-49
2022/08/23 12:16:27;;;;;;;8.67;3.93;;;28.50;43.40;;;;;;5086373;28;20248;-49
2022/08/23 12:18:59;;;;;;;3.63;3.33;;;28.40;43.50;;;;;;5087372;28;20285;-49
2022/08/23 12:21:45;;;;;;;4.00;3.60;;;28.50;43.50;;;;;;5090986;28;20236;-49
2022/08/23 12:24:23;;;;;;;6.83;4.57;;;28.50;43.40;;;;;;5071539;28;20202;-49
2022/08/23 12:27:03;;;;;;;4.33;3.97;;;28.50;42.80;;;;;;5070624;28;20205;-48
2022/08/23 12:29:59;;;;;;;4.30;3.73;;;28.50;42.80;;;;;;5064241;28;20551;-49
2022/08/23 12:32:38;;;;;;;4.13;3.80;;;28.50;43.20;;;;;;5047826;28;20203;-48
2022/08/23 12:35:21;;;;;;;4.27;3.90;;;28.60;43.20;;;;;;5089540;28;20271;-49
2022/08/23 12:37:57;;;;;;;5.23;3.47;;;28.60;43.10;;;;;;5071001;28;20198;-48
2022/08/23 12:40:38;;;;;;;4.47;3.57;;;28.60;43.00;;;;;;5090871;28;20224;-49
2022/08/23 12:43:18;;;;;;;3.47;3.17;;;28.60;43.10;;;;;;5090137;28;20802;-48
2022/08/23 12:45:55;;;;;;;3.47;3.17;;;28.60;43.20;;;;;;5088887;28;20649;-50
2022/08/23 12:48:30;;;;;;;3.73;3.53;;;28.60;43.00;;;;;;5086683;28;20838;-49
2022/08/23 12:51:09;;;;;;;4.60;3.97;;;28.60;42.50;;;;;;5087867;28;20217;-50
2022/08/23 12:53:41;;;;;;;3.50;3.20;;;28.60;42.30;;;;;;5082861;28;20217;-50
2022/08/23 12:56:22;;;;;;;7.23;3.90;;;28.60;42.40;;;;;;5061585;28;20216;-50
2022/08/23 12:59:03;;;;;;;3.77;3.40;;;28.60;42.10;;;;;;5077910;28;20651;-50
2022/08/23 13:01:35;;;;;;;5.80;3.80;;;28.60;42.10;;;;;;5076673;28;20313;-51
2022/08/23 13:04:08;;;;;;;6.20;4.50;;;28.60;42.00;;;;;;5084488;28;20652;-51
2022/08/23 13:06:42;;;;;;;5.60;3.53;;;28.60;42.00;;;;;;5070004;28;20202;-51
2022/08/23 13:09:16;;;;;;;4.10;3.80;;;28.60;42.00;;;;;;5082299;28;20683;-51
2022/08/23 13:11:44;;;;;;;4.27;3.40;;;28.60;42.00;;;;;;5086948;28;20580;-51
2022/08/23 13:14:28;;;;;;;4.33;3.60;;;28.60;42.00;;;;;;5086874;28;20212;-51
2022/08/23 13:17:16;;;;;;;4.33;3.93;;;28.70;41.80;;;;;;5083907;28;20664;-51
2022/08/23 13:19:43;;;;;;;3.93;3.63;;;28.70;41.50;;;;;;5085413;28;20214;-51
2022/08/23 13:22:20;;;;;;;4.20;3.33;;;28.70;41.10;;;;;;5065208;28;20939;-51
2022/08/23 13:25:22;;;;;;;3.80;3.50;;;28.70;41.20;;;;;;5064256;28;20717;-48